createdAt,value
2022-10-01T00:02:37.934Z,33.00
2022-10-01T00:06:07.715Z,27.90
2022-10-01T00:09:35.438Z,32.40
2022-10-01T00:13:02.415Z,29.40
2022-10-01T00:16:31.365Z,29.60
2022-10-01T00:19:58.461Z,30.10
2022-10-01T00:23:25.921Z,30.70
2022-10-01T00:26:53.426Z,32.10
2022-10-01T00:30:21.806Z,32.10
2022-10-01T00:33:49.079Z,33.80
2022-10-01T00:37:19.196Z,35.40
2022-10-01T00:40:45.680Z,33.30
2022-10-01T00:44:38.878Z,30.10
2022-10-01T00:48:06.117Z,35.70
2022-10-01T00:51:38.740Z,36.50
2022-10-01T00:55:09.899Z,32.50
2022-10-01T00:58:37.313Z,34.10
2022-10-01T01:02:08.716Z,30.80
2022-10-01T01:05:36.186Z,34.10
2022-10-01T01:09:03.737Z,35.30
2022-10-01T01:12:52.517Z,34.90
2022-10-01T01:16:28.144Z,30.40
2022-10-01T01:20:19.438Z,36.50
2022-10-01T01:24:08.055Z,35.60
2022-10-01T01:27:42.631Z,34.90
2022-10-01T01:31:14.953Z,29.70
2022-10-01T01:34:46.216Z,33.70
2022-10-01T01:38:17.550Z,32.80
2022-10-01T01:41:50.506Z,35.70
2022-10-01T01:45:24.274Z,34.30
2022-10-01T01:48:54.282Z,32.40
2022-10-01T01:52:21.778Z,33.00
2022-10-01T01:55:50.709Z,34.20
2022-10-01T01:59:19.807Z,32.50
2022-10-01T02:02:51.957Z,34.00
2022-10-01T02:06:30.201Z,32.60
2022-10-01T02:10:07.326Z,33.20
2022-10-01T02:13:44.891Z,31.30
2022-10-01T02:17:18.326Z,34.80
2022-10-01T02:20:51.714Z,32.50
2022-10-01T02:24:29.138Z,35.50
2022-10-01T02:28:07.964Z,33.50
2022-10-01T02:31:38.162Z,34.30
2022-10-01T02:35:08.187Z,37.10
2022-10-01T02:38:37.943Z,36.50
2022-10-01T02:42:08.352Z,37.30
2022-10-01T02:45:38.039Z,38.70
2022-10-01T02:49:05.877Z,33.40
2022-10-01T02:52:40.202Z,40.30
2022-10-01T02:56:09.781Z,35.00
2022-10-01T02:59:36.509Z,35.40
2022-10-01T03:03:03.309Z,45.60
2022-10-01T03:06:29.904Z,35.20
2022-10-01T03:09:56.977Z,30.90
2022-10-01T03:13:25.511Z,33.10
2022-10-01T03:16:53.018Z,32.00
2022-10-01T03:20:20.184Z,32.50
2022-10-01T03:23:47.083Z,35.60
2022-10-01T03:27:13.968Z,36.80
2022-10-01T03:30:40.815Z,36.40
2022-10-01T03:34:07.980Z,38.80
2022-10-01T03:37:34.577Z,35.20
2022-10-01T03:41:01.733Z,38.50
2022-10-01T03:44:28.690Z,38.50
2022-10-01T03:47:58.249Z,33.80
2022-10-01T03:51:25.060Z,35.30
2022-10-01T03:54:52.000Z,37.20
2022-10-01T03:58:19.972Z,38.50
2022-10-01T04:01:47.268Z,38.70
2022-10-01T04:05:15.013Z,36.60
2022-10-01T04:08:42.935Z,35.20
2022-10-01T04:12:11.193Z,36.00
2022-10-01T04:15:38.066Z,41.10
2022-10-01T04:19:05.204Z,32.40
2022-10-01T04:22:32.286Z,34.70
2022-10-01T04:26:02.766Z,38.10
2022-10-01T04:29:30.109Z,34.70
2022-10-01T04:32:57.287Z,36.40
2022-10-01T04:36:24.464Z,37.60
2022-10-01T04:39:51.399Z,39.20
2022-10-01T04:43:18.402Z,39.30
2022-10-01T04:46:45.183Z,36.00
2022-10-01T04:50:12.781Z,36.80
2022-10-01T04:53:39.920Z,40.80
2022-10-01T04:57:07.145Z,42.10
2022-10-01T05:00:34.439Z,41.00
2022-10-01T05:04:01.309Z,42.40
2022-10-01T05:07:28.185Z,39.70
2022-10-01T05:10:55.088Z,38.90
2022-10-01T05:14:27.060Z,41.00
2022-10-01T05:17:54.134Z,42.80
2022-10-01T05:21:21.252Z,39.00
2022-10-01T05:24:49.328Z,38.40
2022-10-01T05:28:21.426Z,46.30
2022-10-01T05:31:50.477Z,42.10
2022-10-01T05:35:17.099Z,41.20
2022-10-01T05:38:44.094Z,43.10
2022-10-01T05:42:10.794Z,50.50
2022-10-01T05:45:38.436Z,44.40
2022-10-01T05:49:07.353Z,50.30
2022-10-01T05:52:37.033Z,49.00
2022-10-01T05:56:04.082Z,49.70
2022-10-01T05:59:31.957Z,55.70
2022-10-01T06:03:00.115Z,55.70
2022-10-01T06:06:28.061Z,53.60
2022-10-01T06:09:55.010Z,50.60
2022-10-01T06:13:21.956Z,49.20
2022-10-01T06:16:48.642Z,49.30
2022-10-01T06:20:18.628Z,47.30
2022-10-01T06:23:46.547Z,47.70
2022-10-01T06:27:13.619Z,47.90
2022-10-01T06:30:42.559Z,47.90
2022-10-01T06:34:09.580Z,48.50
2022-10-01T06:37:40.007Z,45.60
2022-10-01T06:41:07.440Z,45.40
2022-10-01T06:44:34.260Z,48.70
2022-10-01T06:48:03.286Z,48.10
2022-10-01T06:51:44.139Z,49.90
2022-10-01T06:55:16.507Z,53.30
2022-10-01T06:58:44.110Z,68.80
2022-10-01T07:02:21.780Z,71.40
2022-10-01T07:05:49.275Z,63.80
2022-10-01T07:09:15.708Z,55.60
2022-10-01T07:12:43.258Z,59.40
2022-10-01T07:16:10.441Z,60.70
2022-10-01T07:19:37.408Z,53.50
2022-10-01T07:23:04.676Z,53.40
2022-10-01T07:26:31.327Z,57.90
2022-10-01T07:29:59.366Z,53.70
2022-10-01T07:33:26.244Z,58.40
2022-10-01T07:36:54.574Z,53.60
2022-10-01T07:40:22.088Z,53.30
2022-10-01T07:43:50.069Z,49.10
2022-10-01T07:47:16.646Z,52.70
2022-10-01T07:50:49.821Z,50.00
2022-10-01T07:54:17.580Z,52.30
2022-10-01T07:57:43.954Z,49.30
2022-10-01T08:01:10.792Z,48.20
2022-10-01T08:04:55.308Z,51.00
2022-10-01T08:08:24.486Z,53.80
2022-10-01T08:11:51.604Z,49.40
2022-10-01T08:15:20.587Z,56.10
2022-10-01T08:18:49.107Z,50.80
2022-10-01T08:22:15.808Z,46.90
2022-10-01T08:25:46.168Z,49.20
2022-10-01T08:29:16.938Z,49.40
2022-10-01T08:32:44.089Z,46.70
2022-10-01T08:36:12.255Z,48.30
2022-10-01T08:39:39.764Z,48.60
2022-10-01T08:43:11.323Z,49.80
2022-10-01T08:46:39.529Z,45.40
2022-10-01T08:50:14.605Z,40.30
2022-10-01T08:53:46.060Z,44.90
2022-10-01T08:57:19.668Z,45.50
2022-10-01T09:00:49.612Z,39.90
2022-10-01T09:04:16.758Z,39.10
2022-10-01T09:08:08.705Z,37.20
2022-10-01T09:11:45.920Z,37.00
2022-10-01T09:15:33.295Z,32.30
2022-10-01T09:19:10.853Z,35.60
2022-10-01T09:22:42.768Z,31.90
2022-10-01T09:26:13.975Z,34.90
2022-10-01T09:29:46.323Z,31.00
2022-10-01T09:33:18.913Z,35.00
2022-10-01T09:36:59.719Z,34.60
2022-10-01T09:40:37.431Z,39.80
2022-10-01T09:44:04.628Z,33.40
2022-10-01T09:47:36.700Z,33.90
2022-10-01T09:51:10.616Z,34.10
2022-10-01T09:54:46.277Z,30.10
2022-10-01T09:58:18.047Z,28.90
2022-10-01T10:01:48.289Z,29.00
2022-10-01T10:05:18.294Z,31.60
2022-10-01T10:08:48.800Z,27.10
2022-10-01T10:12:31.447Z,24.70
2022-10-01T10:16:00.067Z,29.50
2022-10-01T10:19:29.666Z,31.00
2022-10-01T10:23:06.993Z,27.90
2022-10-01T10:26:39.374Z,30.40
2022-10-01T10:30:15.626Z,31.50
2022-10-01T10:33:55.759Z,23.00
2022-10-01T10:37:32.906Z,25.40
2022-10-01T10:41:00.423Z,24.90
2022-10-01T10:44:36.415Z,26.70
2022-10-01T10:48:06.960Z,24.60
2022-10-01T10:51:46.097Z,24.20
2022-10-01T10:55:30.412Z,22.60
2022-10-01T10:59:08.552Z,39.00
2022-10-01T11:02:35.879Z,22.80
2022-10-01T11:06:11.568Z,24.70
2022-10-01T11:10:00.734Z,30.60
2022-10-01T11:13:43.401Z,35.20
2022-10-01T11:17:27.421Z,22.90
2022-10-01T11:21:05.530Z,26.00
2022-10-01T11:24:53.477Z,20.30
2022-10-01T11:28:35.100Z,19.40
2022-10-01T11:32:12.357Z,29.90
2022-10-01T11:35:55.607Z,18.10
2022-10-01T11:39:26.184Z,18.90
2022-10-01T11:42:58.777Z,19.10
2022-10-01T11:46:50.414Z,19.50
2022-10-01T11:50:22.150Z,17.30
2022-10-01T11:53:53.217Z,22.90
2022-10-01T11:57:38.645Z,26.10
2022-10-01T12:01:12.529Z,20.70
2022-10-01T12:04:43.657Z,24.20
2022-10-01T12:08:19.092Z,28.30
2022-10-01T12:11:56.217Z,34.50
2022-10-01T12:15:30.022Z,27.90
2022-10-01T12:19:03.677Z,34.00
2022-10-01T12:26:06.645Z,26.20
2022-10-01T12:29:42.168Z,23.50
2022-10-01T12:33:32.560Z,29.30
2022-10-01T12:37:14.197Z,30.50
2022-10-01T12:40:48.083Z,26.20
2022-10-01T12:44:44.760Z,28.00
2022-10-01T12:48:19.198Z,25.50
2022-10-01T12:51:49.064Z,24.50
2022-10-01T12:55:50.369Z,23.00
2022-10-01T12:59:41.184Z,23.30
2022-10-01T13:03:37.112Z,28.90
2022-10-01T13:07:20.907Z,25.20
2022-10-01T13:11:02.604Z,26.50
2022-10-01T13:14:33.464Z,31.20
2022-10-01T13:18:07.846Z,37.50
2022-10-01T13:21:49.486Z,26.90
2022-10-01T13:25:31.906Z,24.50
2022-10-01T13:29:17.518Z,23.70
2022-10-01T13:32:58.207Z,29.10
2022-10-01T13:36:37.743Z,20.90
2022-10-01T13:40:22.471Z,29.00
2022-10-01T13:43:57.034Z,23.50
2022-10-01T13:47:25.693Z,25.10
2022-10-01T13:51:05.357Z,22.10
2022-10-01T13:54:44.232Z,28.20
2022-10-01T13:58:25.520Z,29.00
2022-10-01T14:01:52.211Z,32.40
2022-10-01T14:05:35.406Z,30.50
2022-10-01T14:09:12.141Z,24.30
2022-10-01T14:13:01.378Z,26.00
2022-10-01T14:16:33.811Z,28.40
2022-10-01T14:20:02.634Z,23.90
2022-10-01T14:23:38.694Z,26.60
2022-10-01T14:27:14.886Z,25.00
2022-10-01T14:30:52.868Z,24.40
2022-10-01T14:34:35.276Z,31.00
2022-10-01T14:38:13.833Z,24.60
2022-10-01T14:41:51.859Z,23.70
2022-10-01T14:45:22.105Z,38.00
2022-10-01T14:49:00.987Z,23.60
2022-10-01T14:52:34.359Z,24.80
2022-10-01T14:56:07.482Z,26.70
2022-10-01T14:59:42.007Z,28.60
2022-10-01T15:03:16.034Z,30.00
2022-10-01T15:06:47.506Z,32.60
2022-10-01T15:10:21.404Z,31.20
2022-10-01T15:13:52.050Z,26.00
2022-10-01T15:17:25.104Z,27.30
2022-10-01T15:21:05.803Z,29.00
2022-10-01T15:24:42.918Z,26.80
2022-10-01T15:28:31.163Z,25.10
2022-10-01T15:32:21.465Z,30.50
2022-10-01T15:35:55.397Z,28.20
2022-10-01T15:39:34.940Z,25.50
2022-10-01T15:43:35.798Z,25.80
2022-10-01T15:47:36.096Z,23.20
2022-10-01T15:51:07.447Z,26.90
2022-10-01T15:54:43.116Z,27.20
2022-10-01T15:58:23.488Z,23.60
2022-10-01T16:01:50.010Z,27.50
2022-10-01T16:05:21.625Z,32.20
2022-10-01T16:09:05.565Z,33.20
2022-10-01T16:12:33.402Z,28.00
2022-10-01T16:16:23.073Z,24.90
2022-10-01T16:19:52.103Z,26.10
2022-10-01T16:23:42.406Z,32.30
2022-10-01T16:27:20.524Z,26.50
2022-10-01T16:30:53.686Z,25.70
2022-10-01T16:34:25.360Z,30.40
2022-10-01T16:37:54.581Z,32.50
2022-10-01T16:41:27.813Z,11.60
2022-10-01T16:44:57.222Z,6.20
2022-10-01T16:48:27.728Z,9.10
2022-10-01T16:51:59.582Z,5.30
2022-10-01T16:55:30.865Z,5.50
2022-10-01T16:58:58.937Z,9.10
2022-10-01T17:02:25.702Z,6.30
2022-10-01T17:05:59.942Z,8.70
2022-10-01T17:09:33.500Z,7.80
2022-10-01T17:13:02.805Z,7.90
2022-10-01T17:16:32.671Z,8.60
2022-10-01T17:20:04.186Z,13.90
2022-10-01T17:23:31.469Z,8.40
2022-10-01T17:26:58.443Z,9.30
2022-10-01T17:30:26.470Z,8.00
2022-10-01T17:34:01.202Z,11.40
2022-10-01T17:37:29.172Z,32.00
2022-10-01T17:40:57.007Z,63.20
2022-10-01T17:44:27.271Z,48.50
2022-10-01T17:47:55.706Z,32.30
2022-10-01T17:51:24.114Z,27.30
2022-10-01T17:54:51.125Z,22.50
2022-10-01T17:58:25.409Z,18.70
2022-10-01T18:01:53.882Z,25.60
2022-10-01T18:05:20.901Z,23.40
2022-10-01T18:08:56.889Z,21.90
2022-10-01T18:12:27.596Z,16.10
2022-10-01T18:16:03.970Z,15.10
2022-10-01T18:23:19.575Z,6.80
2022-10-01T18:26:47.749Z,8.10
2022-10-01T18:30:15.956Z,7.70
2022-10-01T18:33:47.365Z,9.60
2022-10-01T18:37:30.364Z,12.00
2022-10-01T18:41:06.018Z,11.20
2022-10-01T18:44:33.156Z,10.30
2022-10-01T18:48:16.749Z,13.10
2022-10-01T18:55:48.024Z,10.60
2022-10-01T18:59:43.987Z,14.00
2022-10-01T19:03:36.138Z,12.00
2022-10-01T19:07:23.475Z,19.40
2022-10-01T19:10:58.808Z,22.70
2022-10-01T19:14:48.393Z,14.80
2022-10-01T19:18:42.251Z,17.30
2022-10-01T19:22:19.166Z,18.60
2022-10-01T19:25:56.159Z,17.80
2022-10-01T19:29:40.248Z,22.10
2022-10-01T19:33:11.018Z,19.50
2022-10-01T19:36:45.448Z,22.00
2022-10-01T19:40:22.492Z,15.50
2022-10-01T19:43:55.084Z,20.10
2022-10-01T19:47:31.120Z,15.10
2022-10-01T19:51:03.901Z,14.00
2022-10-01T19:54:34.627Z,13.70
2022-10-01T19:58:03.736Z,13.70
2022-10-01T20:01:40.340Z,13.90
2022-10-01T20:05:11.716Z,13.40
2022-10-01T20:08:47.264Z,15.40
2022-10-01T20:12:27.227Z,14.80
2022-10-01T20:16:03.019Z,13.10
2022-10-01T20:19:41.022Z,17.00
2022-10-01T20:23:29.004Z,15.90
2022-10-01T20:27:15.371Z,14.20
2022-10-01T20:30:51.192Z,13.40
2022-10-01T20:34:29.651Z,16.60
2022-10-01T20:38:15.120Z,14.60
2022-10-01T20:41:47.045Z,13.10
2022-10-01T20:45:21.642Z,16.10
2022-10-01T20:48:53.157Z,18.50
2022-10-01T20:52:29.248Z,12.60
2022-10-01T20:56:06.343Z,14.00
2022-10-01T20:59:40.245Z,18.30
2022-10-01T21:03:16.953Z,14.70
2022-10-01T21:06:48.161Z,11.70
2022-10-01T21:10:24.500Z,11.20
2022-10-01T21:13:59.288Z,11.80
2022-10-01T21:17:42.847Z,11.10
2022-10-01T21:21:19.687Z,10.60
2022-10-01T21:25:05.152Z,11.70
2022-10-01T21:28:48.687Z,10.60
2022-10-01T21:32:29.231Z,10.50
2022-10-01T21:36:04.059Z,10.70
2022-10-01T21:39:38.468Z,11.50
2022-10-01T21:43:15.563Z,10.60
2022-10-01T21:46:51.397Z,10.80
2022-10-01T21:50:35.884Z,9.50
2022-10-01T21:54:21.385Z,12.10
2022-10-01T21:58:18.514Z,8.70
2022-10-01T22:01:56.574Z,8.50
2022-10-01T22:05:30.461Z,9.80
2022-10-01T22:09:09.713Z,12.20
2022-10-01T22:12:40.532Z,8.10
2022-10-01T22:16:12.490Z,11.20
2022-10-01T22:19:44.454Z,9.40
2022-10-01T22:23:13.985Z,11.80
2022-10-01T22:26:47.275Z,8.70
2022-10-01T22:30:18.215Z,9.70
2022-10-01T22:33:54.197Z,11.90
2022-10-01T22:37:24.756Z,11.60
2022-10-01T22:40:56.188Z,8.30
2022-10-01T22:44:24.400Z,9.00
2022-10-01T22:48:09.193Z,9.20
2022-10-01T22:51:57.313Z,11.90
2022-10-01T22:55:32.270Z,10.20
2022-10-01T22:59:10.955Z,10.20
2022-10-01T23:02:44.427Z,10.40
2022-10-01T23:06:21.009Z,7.80
2022-10-01T23:09:55.967Z,8.60
2022-10-01T23:13:33.568Z,9.10
2022-10-01T23:17:09.777Z,10.70
2022-10-01T23:20:45.326Z,8.20
2022-10-01T23:24:24.402Z,10.90
2022-10-01T23:28:09.999Z,9.20
2022-10-01T23:31:41.978Z,7.90
2022-10-01T23:35:18.261Z,8.10
2022-10-01T23:39:10.213Z,12.70
2022-10-01T23:42:46.612Z,8.90
2022-10-01T23:46:17.869Z,10.10
2022-10-01T23:49:51.280Z,10.90
2022-10-01T23:53:22.910Z,8.70
2022-10-01T23:56:54.537Z,12.40
